sensor_id;sensor_type;location;lat;lon;timestamp;P1;durP1;ratioP1;P2;durP2;ratioP2
28760;SDS011;15917;50.014;8.352;2024-03-22T00:01:06;32.47;;;15.38;;
28760;SDS011;15917;50.014;8.352;2024-03-22T00:03:31;30.90;;;14.05;;
28760;SDS011;15917;50.014;8.352;2024-03-22T00:05:57;26.13;;;13.52;;
28760;SDS011;15917;50.014;8.352;2024-03-22T00:08:23;28.48;;;13.25;;
28760;SDS011;15917;50.014;8.352;2024-03-22T00:10:48;28.48;;;14.20;;
28760;SDS011;15917;50.014;8.352;2024-03-22T00:13:14;25.35;;;13.75;;
28760;SDS011;15917;50.014;8.352;2024-03-22T00:15:39;27.30;;;14.55;;
28760;SDS011;15917;50.014;8.352;2024-03-22T00:18:07;26.38;;;13.50;;
28760;SDS011;15917;50.014;8.352;2024-03-22T00:20:33;28.60;;;13.90;;
28760;SDS011;15917;50.014;8.352;2024-03-22T00:22:58;27.52;;;14.25;;
28760;SDS011;15917;50.014;8.352;2024-03-22T00:25:24;30.42;;;13.75;;
28760;SDS011;15917;50.014;8.352;2024-03-22T00:27:49;29.33;;;13.00;;
28760;SDS011;15917;50.014;8.352;2024-03-22T00:30:15;29.88;;;13.40;;
28760;SDS011;15917;50.014;8.352;2024-03-22T00:32:40;26.00;;;14.40;;
28760;SDS011;15917;50.014;8.352;2024-03-22T00:35:09;26.40;;;13.60;;
28760;SDS011;15917;50.014;8.352;2024-03-22T00:37:35;31.95;;;13.70;;
28760;SDS011;15917;50.014;8.352;2024-03-22T00:40:01;31.58;;;15.48;;
28760;SDS011;15917;50.014;8.352;2024-03-22T00:42:26;28.10;;;14.55;;
28760;SDS011;15917;50.014;8.352;2024-03-22T00:44:52;27.35;;;14.68;;
28760;SDS011;15917;50.014;8.352;2024-03-22T00:47:17;28.55;;;15.55;;
28760;SDS011;15917;50.014;8.352;2024-03-22T00:49:43;26.42;;;14.45;;
28760;SDS011;15917;50.014;8.352;2024-03-22T00:52:09;31.95;;;15.32;;
28760;SDS011;15917;50.014;8.352;2024-03-22T00:54:34;30.10;;;15.68;;
28760;SDS011;15917;50.014;8.352;2024-03-22T00:57:00;28.55;;;16.05;;
28760;SDS011;15917;50.014;8.352;2024-03-22T00:59:26;31.35;;;17.33;;
28760;SDS011;15917;50.014;8.352;2024-03-22T01:01:52;28.35;;;15.60;;
28760;SDS011;15917;50.014;8.352;2024-03-22T01:04:17;38.35;;;17.17;;
28760;SDS011;15917;50.014;8.352;2024-03-22T01:06:43;31.75;;;17.73;;
28760;SDS011;15917;50.014;8.352;2024-03-22T01:09:08;35.00;;;19.27;;
28760;SDS011;15917;50.014;8.352;2024-03-22T01:11:34;31.52;;;18.13;;
28760;SDS011;15917;50.014;8.352;2024-03-22T01:14:00;33.22;;;18.33;;
28760;SDS011;15917;50.014;8.352;2024-03-22T01:16:25;41.17;;;20.65;;
28760;SDS011;15917;50.014;8.352;2024-03-22T01:18:51;41.42;;;18.83;;
28760;SDS011;15917;50.014;8.352;2024-03-22T01:21:16;35.13;;;19.38;;
28760;SDS011;15917;50.014;8.352;2024-03-22T01:23:42;37.33;;;19.60;;
28760;SDS011;15917;50.014;8.352;2024-03-22T01:26:08;37.28;;;18.92;;
28760;SDS011;15917;50.014;8.352;2024-03-22T01:28:33;36.10;;;18.95;;
28760;SDS011;15917;50.014;8.352;2024-03-22T01:30:59;37.25;;;19.63;;
28760;SDS011;15917;50.014;8.352;2024-03-22T01:33:24;37.63;;;19.08;;
28760;SDS011;15917;50.014;8.352;2024-03-22T01:35:50;37.63;;;19.67;;
28760;SDS011;15917;50.014;8.352;2024-03-22T01:38:15;45.83;;;21.55;;
28760;SDS011;15917;50.014;8.352;2024-03-22T01:40:41;54.72;;;22.85;;
28760;SDS011;15917;50.014;8.352;2024-03-22T01:43:06;45.65;;;22.20;;
28760;SDS011;15917;50.014;8.352;2024-03-22T01:45:32;39.22;;;19.95;;
28760;SDS011;15917;50.014;8.352;2024-03-22T01:47:58;44.42;;;20.63;;
28760;SDS011;15917;50.014;8.352;2024-03-22T01:50:25;44.03;;;20.63;;
28760;SDS011;15917;50.014;8.352;2024-03-22T01:52:52;45.60;;;22.85;;
28760;SDS011;15917;50.014;8.352;2024-03-22T01:55:17;40.92;;;20.90;;
28760;SDS011;15917;50.014;8.352;2024-03-22T01:57:46;45.88;;;20.85;;
28760;SDS011;15917;50.014;8.352;2024-03-22T02:00:14;49.63;;;23.65;;
28760;SDS011;15917;50.014;8.352;2024-03-22T02:02:40;48.28;;;20.52;;
28760;SDS011;15917;50.014;8.352;2024-03-22T02:05:15;43.42;;;21.23;;
28760;SDS011;15917;50.014;8.352;2024-03-22T02:07:44;41.70;;;20.40;;
28760;SDS011;15917;50.014;8.352;2024-03-22T02:10:10;38.10;;;20.27;;
28760;SDS011;15917;50.014;8.352;2024-03-22T02:12:37;40.95;;;21.75;;
28760;SDS011;15917;50.014;8.352;2024-03-22T02:15:03;38.97;;;20.63;;
28760;SDS011;15917;50.014;8.352;2024-03-22T02:17:29;41.63;;;20.58;;
28760;SDS011;15917;50.014;8.352;2024-03-22T02:19:55;43.95;;;20.55;;
28760;SDS011;15917;50.014;8.352;2024-03-22T02:22:20;39.05;;;19.77;;
28760;SDS011;15917;50.014;8.352;2024-03-22T02:24:46;37.80;;;20.60;;
28760;SDS011;15917;50.014;8.352;2024-03-22T02:27:12;40.83;;;20.33;;
28760;SDS011;15917;50.014;8.352;2024-03-22T02:29:37;37.50;;;19.77;;
28760;SDS011;15917;50.014;8.352;2024-03-22T02:32:03;35.58;;;18.88;;
28760;SDS011;15917;50.014;8.352;2024-03-22T02:34:29;44.70;;;21.02;;
28760;SDS011;15917;50.014;8.352;2024-03-22T02:36:54;40.00;;;20.13;;
28760;SDS011;15917;50.014;8.352;2024-03-22T02:39:20;48.13;;;20.38;;
28760;SDS011;15917;50.014;8.352;2024-03-22T02:41:45;39.50;;;19.83;;
28760;SDS011;15917;50.014;8.352;2024-03-22T02:44:11;39.50;;;20.48;;
28760;SDS011;15917;50.014;8.352;2024-03-22T02:46:37;43.20;;;20.33;;
28760;SDS011;15917;50.014;8.352;2024-03-22T02:49:02;43.47;;;19.83;;
28760;SDS011;15917;50.014;8.352;2024-03-22T02:51:28;46.47;;;19.73;;
28760;SDS011;15917;50.014;8.352;2024-03-22T02:53:53;39.22;;;19.50;;
28760;SDS011;15917;50.014;8.352;2024-03-22T02:56:19;34.17;;;18.70;;
28760;SDS011;15917;50.014;8.352;2024-03-22T02:58:44;39.00;;;20.52;;
28760;SDS011;15917;50.014;8.352;2024-03-22T03:01:10;39.15;;;19.50;;
28760;SDS011;15917;50.014;8.352;2024-03-22T03:03:35;40.28;;;20.50;;
28760;SDS011;15917;50.014;8.352;2024-03-22T03:06:01;42.72;;;20.27;;
28760;SDS011;15917;50.014;8.352;2024-03-22T03:08:27;37.28;;;19.50;;
28760;SDS011;15917;50.014;8.352;2024-03-22T03:10:52;42.28;;;19.90;;
28760;SDS011;15917;50.014;8.352;2024-03-22T03:13:18;43.83;;;20.80;;
28760;SDS011;15917;50.014;8.352;2024-03-22T03:15:43;36.88;;;18.63;;
28760;SDS011;15917;50.014;8.352;2024-03-22T03:18:09;38.13;;;19.30;;
28760;SDS011;15917;50.014;8.352;2024-03-22T03:20:34;41.05;;;20.13;;
28760;SDS011;15917;50.014;8.352;2024-03-22T03:23:00;37.08;;;19.65;;
28760;SDS011;15917;50.014;8.352;2024-03-22T03:25:26;37.33;;;20.17;;
28760;SDS011;15917;50.014;8.352;2024-03-22T03:27:52;39.55;;;19.42;;
28760;SDS011;15917;50.014;8.352;2024-03-22T03:30:17;40.35;;;19.90;;
28760;SDS011;15917;50.014;8.352;2024-03-22T03:32:43;37.28;;;20.08;;
28760;SDS011;15917;50.014;8.352;2024-03-22T03:35:09;41.08;;;20.08;;
28760;SDS011;15917;50.014;8.352;2024-03-22T03:37:34;39.50;;;20.70;;
28760;SDS011;15917;50.014;8.352;2024-03-22T03:40:00;44.33;;;20.55;;
28760;SDS011;15917;50.014;8.352;2024-03-22T03:42:26;44.10;;;20.92;;
28760;SDS011;15917;50.014;8.352;2024-03-22T03:44:52;43.92;;;20.35;;
28760;SDS011;15917;50.014;8.352;2024-03-22T03:47:17;45.38;;;20.58;;
28760;SDS011;15917;50.014;8.352;2024-03-22T03:49:44;36.85;;;19.35;;
28760;SDS011;15917;50.014;8.352;2024-03-22T03:52:11;43.83;;;20.52;;
28760;SDS011;15917;50.014;8.352;2024-03-22T03:54:36;40.92;;;21.08;;
28760;SDS011;15917;50.014;8.352;2024-03-22T03:57:02;38.53;;;20.25;;
28760;SDS011;15917;50.014;8.352;2024-03-22T03:59:27;39.42;;;20.45;;
28760;SDS011;15917;50.014;8.352;2024-03-22T04:01:53;47.38;;;20.35;;
28760;SDS011;15917;50.014;8.352;2024-03-22T04:04:19;43.17;;;20.35;;
28760;SDS011;15917;50.014;8.352;2024-03-22T04:06:44;39.60;;;20.23;;
28760;SDS011;15917;50.014;8.352;2024-03-22T04:09:10;42.33;;;19.42;;
28760;SDS011;15917;50.014;8.352;2024-03-22T04:11:36;41.03;;;19.55;;
28760;SDS011;15917;50.014;8.352;2024-03-22T04:14:02;41.30;;;20.33;;
28760;SDS011;15917;50.014;8.352;2024-03-22T04:16:29;40.03;;;18.73;;
28760;SDS011;15917;50.014;8.352;2024-03-22T04:18:54;40.38;;;20.35;;
28760;SDS011;15917;50.014;8.352;2024-03-22T04:21:20;41.10;;;19.83;;
28760;SDS011;15917;50.014;8.352;2024-03-22T04:23:45;42.45;;;18.67;;
28760;SDS011;15917;50.014;8.352;2024-03-22T04:26:11;43.50;;;19.73;;
28760;SDS011;15917;50.014;8.352;2024-03-22T04:28:37;45.03;;;19.70;;
28760;SDS011;15917;50.014;8.352;2024-03-22T04:31:07;39.03;;;17.55;;
28760;SDS011;15917;50.014;8.352;2024-03-22T04:33:34;39.00;;;17.92;;
28760;SDS011;15917;50.014;8.352;2024-03-22T04:36:00;40.20;;;18.58;;
28760;SDS011;15917;50.014;8.352;2024-03-22T04:38:26;44.03;;;17.42;;
28760;SDS011;15917;50.014;8.352;2024-03-22T04:40:53;40.70;;;17.40;;
28760;SDS011;15917;50.014;8.352;2024-03-22T04:43:19;40.58;;;18.73;;
28760;SDS011;15917;50.014;8.352;2024-03-22T04:45:46;35.88;;;17.58;;
28760;SDS011;15917;50.014;8.352;2024-03-22T04:48:12;45.25;;;17.95;;
28760;SDS011;15917;50.014;8.352;2024-03-22T04:50:42;40.70;;;19.00;;
28760;SDS011;15917;50.014;8.352;2024-03-22T04:53:08;37.78;;;17.58;;
28760;SDS011;15917;50.014;8.352;2024-03-22T04:55:33;41.00;;;18.50;;
28760;SDS011;15917;50.014;8.352;2024-03-22T04:57:59;41.75;;;17.80;;
28760;SDS011;15917;50.014;8.352;2024-03-22T05:00:25;42.05;;;18.05;;
28760;SDS011;15917;50.014;8.352;2024-03-22T05:02:51;41.15;;;18.15;;
28760;SDS011;15917;50.014;8.352;2024-03-22T05:05:17;38.33;;;17.55;;
28760;SDS011;15917;50.014;8.352;2024-03-22T05:07:43;35.92;;;17.65;;
28760;SDS011;15917;50.014;8.352;2024-03-22T05:10:09;37.28;;;16.63;;
28760;SDS011;15917;50.014;8.352;2024-03-22T05:12:34;35.63;;;15.85;;
28760;SDS011;15917;50.014;8.352;2024-03-22T05:15:01;38.08;;;16.88;;
28760;SDS011;15917;50.014;8.352;2024-03-22T05:17:28;39.17;;;16.98;;
28760;SDS011;15917;50.014;8.352;2024-03-22T05:19:56;36.72;;;16.65;;
28760;SDS011;15917;50.014;8.352;2024-03-22T05:22:25;37.45;;;15.70;;
28760;SDS011;15917;50.014;8.352;2024-03-22T05:24:51;34.15;;;16.83;;
28760;SDS011;15917;50.014;8.352;2024-03-22T05:27:17;33.22;;;15.68;;
28760;SDS011;15917;50.014;8.352;2024-03-22T05:29:43;33.38;;;15.80;;
28760;SDS011;15917;50.014;8.352;2024-03-22T05:32:08;34.17;;;15.80;;
28760;SDS011;15917;50.014;8.352;2024-03-22T05:34:34;41.85;;;17.30;;
28760;SDS011;15917;50.014;8.352;2024-03-22T05:37:00;37.25;;;17.42;;
28760;SDS011;15917;50.014;8.352;2024-03-22T05:39:26;37.45;;;16.65;;
28760;SDS011;15917;50.014;8.352;2024-03-22T05:41:52;37.78;;;16.60;;
28760;SDS011;15917;50.014;8.352;2024-03-22T05:44:19;31.60;;;13.90;;
28760;SDS011;15917;50.014;8.352;2024-03-22T05:46:45;35.15;;;15.93;;
28760;SDS011;15917;50.014;8.352;2024-03-22T05:49:10;31.55;;;15.98;;
28760;SDS011;15917;50.014;8.352;2024-03-22T05:51:36;38.05;;;15.38;;
28760;SDS011;15917;50.014;8.352;2024-03-22T05:54:02;30.90;;;15.52;;
28760;SDS011;15917;50.014;8.352;2024-03-22T05:56:27;38.35;;;16.83;;
28760;SDS011;15917;50.014;8.352;2024-03-22T05:58:53;43.83;;;18.90;;
28760;SDS011;15917;50.014;8.352;2024-03-22T06:01:19;39.22;;;17.50;;
28760;SDS011;15917;50.014;8.352;2024-03-22T06:03:44;33.80;;;15.02;;
28760;SDS011;15917;50.014;8.352;2024-03-22T06:06:10;35.58;;;17.35;;
28760;SDS011;15917;50.014;8.352;2024-03-22T06:08:37;35.03;;;17.85;;
28760;SDS011;15917;50.014;8.352;2024-03-22T06:11:06;34.72;;;15.98;;
28760;SDS011;15917;50.014;8.352;2024-03-22T06:13:32;34.33;;;18.08;;
28760;SDS011;15917;50.014;8.352;2024-03-22T06:15:58;37.58;;;16.80;;
28760;SDS011;15917;50.014;8.352;2024-03-22T06:18:24;35.08;;;16.27;;
28760;SDS011;15917;50.014;8.352;2024-03-22T06:20:49;42.10;;;17.73;;
28760;SDS011;15917;50.014;8.352;2024-03-22T06:23:15;35.55;;;17.25;;
28760;SDS011;15917;50.014;8.352;2024-03-22T06:25:41;36.88;;;15.50;;
28760;SDS011;15917;50.014;8.352;2024-03-22T06:28:06;33.05;;;16.70;;
28760;SDS011;15917;50.014;8.352;2024-03-22T06:30:32;39.13;;;17.05;;
28760;SDS011;15917;50.014;8.352;2024-03-22T06:32:57;33.83;;;16.23;;
28760;SDS011;15917;50.014;8.352;2024-03-22T06:35:23;35.33;;;15.93;;
28760;SDS011;15917;50.014;8.352;2024-03-22T06:37:48;37.67;;;15.55;;
28760;SDS011;15917;50.014;8.352;2024-03-22T06:40:14;36.88;;;16.52;;
28760;SDS011;15917;50.014;8.352;2024-03-22T06:42:41;36.60;;;16.50;;
28760;SDS011;15917;50.014;8.352;2024-03-22T06:45:07;30.88;;;15.20;;
28760;SDS011;15917;50.014;8.352;2024-03-22T06:47:32;35.80;;;15.15;;
28760;SDS011;15917;50.014;8.352;2024-03-22T06:49:58;34.65;;;15.93;;
28760;SDS011;15917;50.014;8.352;2024-03-22T06:52:24;32.15;;;16.05;;
28760;SDS011;15917;50.014;8.352;2024-03-22T06:54:49;46.22;;;15.77;;
28760;SDS011;15917;50.014;8.352;2024-03-22T06:57:15;35.70;;;16.08;;
28760;SDS011;15917;50.014;8.352;2024-03-22T06:59:41;30.70;;;15.50;;
28760;SDS011;15917;50.014;8.352;2024-03-22T07:02:07;35.47;;;17.15;;
28760;SDS011;15917;50.014;8.352;2024-03-22T07:04:34;42.45;;;17.05;;
28760;SDS011;15917;50.014;8.352;2024-03-22T07:07:00;37.35;;;16.75;;
28760;SDS011;15917;50.014;8.352;2024-03-22T07:09:26;40.08;;;16.70;;
28760;SDS011;15917;50.014;8.352;2024-03-22T07:11:53;38.10;;;18.90;;
28760;SDS011;15917;50.014;8.352;2024-03-22T07:14:19;24.33;;;10.90;;
28760;SDS011;15917;50.014;8.352;2024-03-22T07:16:44;37.00;;;17.95;;
28760;SDS011;15917;50.014;8.352;2024-03-22T07:19:11;39.47;;;17.92;;
28760;SDS011;15917;50.014;8.352;2024-03-22T07:21:37;32.63;;;16.15;;
28760;SDS011;15917;50.014;8.352;2024-03-22T07:24:04;34.40;;;17.05;;
28760;SDS011;15917;50.014;8.352;2024-03-22T07:26:29;36.58;;;17.13;;
28760;SDS011;15917;50.014;8.352;2024-03-22T07:28:55;38.65;;;17.20;;
28760;SDS011;15917;50.014;8.352;2024-03-22T07:31:21;34.40;;;16.08;;
28760;SDS011;15917;50.014;8.352;2024-03-22T07:33:46;33.78;;;16.52;;
28760;SDS011;15917;50.014;8.352;2024-03-22T07:36:12;34.03;;;16.58;;
28760;SDS011;15917;50.014;8.352;2024-03-22T07:38:40;31.02;;;15.63;;
28760;SDS011;15917;50.014;8.352;2024-03-22T07:41:06;30.85;;;15.73;;
28760;SDS011;15917;50.014;8.352;2024-03-22T07:43:31;32.05;;;15.77;;
28760;SDS011;15917;50.014;8.352;2024-03-22T07:45:57;41.58;;;16.30;;
28760;SDS011;15917;50.014;8.352;2024-03-22T07:48:22;38.63;;;16.20;;
28760;SDS011;15917;50.014;8.352;2024-03-22T07:50:55;33.67;;;16.70;;
28760;SDS011;15917;50.014;8.352;2024-03-22T07:53:22;30.33;;;10.65;;
28760;SDS011;15917;50.014;8.352;2024-03-22T07:55:47;54.15;;;17.88;;
28760;SDS011;15917;50.014;8.352;2024-03-22T07:58:13;38.53;;;16.30;;
28760;SDS011;15917;50.014;8.352;2024-03-22T08:00:38;37.88;;;16.65;;
28760;SDS011;15917;50.014;8.352;2024-03-22T08:03:04;32.88;;;15.73;;
28760;SDS011;15917;50.014;8.352;2024-03-22T08:05:29;39.63;;;16.25;;
28760;SDS011;15917;50.014;8.352;2024-03-22T08:07:55;46.70;;;16.38;;
28760;SDS011;15917;50.014;8.352;2024-03-22T08:10:21;32.53;;;15.93;;
28760;SDS011;15917;50.014;8.352;2024-03-22T08:12:46;33.08;;;14.82;;
28760;SDS011;15917;50.014;8.352;2024-03-22T08:15:12;32.88;;;15.52;;
28760;SDS011;15917;50.014;8.352;2024-03-22T08:17:37;39.15;;;17.17;;
28760;SDS011;15917;50.014;8.352;2024-03-22T08:20:03;40.30;;;17.45;;
28760;SDS011;15917;50.014;8.352;2024-03-22T08:22:29;35.10;;;16.80;;
28760;SDS011;15917;50.014;8.352;2024-03-22T08:24:55;29.17;;;14.45;;
28760;SDS011;15917;50.014;8.352;2024-03-22T08:27:21;28.67;;;15.15;;
28760;SDS011;15917;50.014;8.352;2024-03-22T08:29:46;30.55;;;14.90;;
28760;SDS011;15917;50.014;8.352;2024-03-22T08:32:12;29.63;;;14.27;;
28760;SDS011;15917;50.014;8.352;2024-03-22T08:34:38;40.42;;;15.68;;
28760;SDS011;15917;50.014;8.352;2024-03-22T08:37:03;35.15;;;15.27;;
28760;SDS011;15917;50.014;8.352;2024-03-22T08:39:29;32.60;;;13.77;;
28760;SDS011;15917;50.014;8.352;2024-03-22T08:41:55;26.98;;;13.75;;
28760;SDS011;15917;50.014;8.352;2024-03-22T08:44:22;30.63;;;14.68;;
28760;SDS011;15917;50.014;8.352;2024-03-22T08:46:47;32.05;;;14.35;;
28760;SDS011;15917;50.014;8.352;2024-03-22T08:49:14;31.57;;;13.90;;
28760;SDS011;15917;50.014;8.352;2024-03-22T08:51:40;26.80;;;12.43;;
28760;SDS011;15917;50.014;8.352;2024-03-22T08:54:06;26.10;;;12.27;;
28760;SDS011;15917;50.014;8.352;2024-03-22T08:56:32;21.40;;;11.65;;
28760;SDS011;15917;50.014;8.352;2024-03-22T08:58:58;28.30;;;12.98;;
28760;SDS011;15917;50.014;8.352;2024-03-22T09:01:24;24.83;;;12.43;;
28760;SDS011;15917;50.014;8.352;2024-03-22T09:03:50;23.73;;;12.20;;
28760;SDS011;15917;50.014;8.352;2024-03-22T09:06:16;24.77;;;11.73;;
28760;SDS011;15917;50.014;8.352;2024-03-22T09:08:41;20.67;;;11.70;;
28760;SDS011;15917;50.014;8.352;2024-03-22T09:11:07;25.73;;;12.68;;
28760;SDS011;15917;50.014;8.352;2024-03-22T09:13:33;24.67;;;11.32;;
28760;SDS011;15917;50.014;8.352;2024-03-22T09:16:00;20.10;;;11.77;;
28760;SDS011;15917;50.014;8.352;2024-03-22T09:18:26;26.25;;;12.70;;
28760;SDS011;15917;50.014;8.352;2024-03-22T09:20:55;24.83;;;11.48;;
28760;SDS011;15917;50.014;8.352;2024-03-22T09:23:21;26.63;;;12.10;;
28760;SDS011;15917;50.014;8.352;2024-03-22T09:25:47;31.33;;;11.60;;
28760;SDS011;15917;50.014;8.352;2024-03-22T09:28:13;24.80;;;9.80;;
28760;SDS011;15917;50.014;8.352;2024-03-22T09:30:39;20.77;;;10.18;;
28760;SDS011;15917;50.014;8.352;2024-03-22T09:33:05;21.70;;;9.65;;
28760;SDS011;15917;50.014;8.352;2024-03-22T09:35:35;18.65;;;10.32;;
28760;SDS011;15917;50.014;8.352;2024-03-22T09:38:01;19.05;;;10.18;;
28760;SDS011;15917;50.014;8.352;2024-03-22T09:40:27;18.33;;;10.05;;
28760;SDS011;15917;50.014;8.352;2024-03-22T09:42:58;21.80;;;10.10;;
28760;SDS011;15917;50.014;8.352;2024-03-22T09:45:29;16.05;;;9.18;;
28760;SDS011;15917;50.014;8.352;2024-03-22T09:47:56;19.48;;;9.50;;
28760;SDS011;15917;50.014;8.352;2024-03-22T09:50:22;20.15;;;9.38;;
28760;SDS011;15917;50.014;8.352;2024-03-22T09:52:48;18.60;;;9.38;;
28760;SDS011;15917;50.014;8.352;2024-03-22T09:55:17;15.27;;;8.50;;
28760;SDS011;15917;50.014;8.352;2024-03-22T09:57:47;14.85;;;8.88;;
28760;SDS011;15917;50.014;8.352;2024-03-22T10:00:16;16.33;;;8.57;;
28760;SDS011;15917;50.014;8.352;2024-03-22T10:02:46;25.15;;;12.20;;
28760;SDS011;15917;50.014;8.352;2024-03-22T10:05:13;15.48;;;8.60;;
28760;SDS011;15917;50.014;8.352;2024-03-22T10:07:40;19.70;;;9.13;;
28760;SDS011;15917;50.014;8.352;2024-03-22T10:10:06;15.65;;;8.52;;
28760;SDS011;15917;50.014;8.352;2024-03-22T10:12:33;14.93;;;7.68;;
28760;SDS011;15917;50.014;8.352;2024-03-22T10:14:58;17.88;;;8.77;;
28760;SDS011;15917;50.014;8.352;2024-03-22T10:17:26;16.70;;;8.93;;
28760;SDS011;15917;50.014;8.352;2024-03-22T10:19:53;15.68;;;8.65;;
28760;SDS011;15917;50.014;8.352;2024-03-22T10:22:19;17.05;;;8.50;;
28760;SDS011;15917;50.014;8.352;2024-03-22T10:24:44;16.52;;;8.93;;
28760;SDS011;15917;50.014;8.352;2024-03-22T10:27:10;13.98;;;8.30;;
28760;SDS011;15917;50.014;8.352;2024-03-22T10:29:36;14.02;;;7.60;;
28760;SDS011;15917;50.014;8.352;2024-03-22T10:32:02;18.02;;;8.57;;
28760;SDS011;15917;50.014;8.352;2024-03-22T10:34:28;13.07;;;8.05;;
28760;SDS011;15917;50.014;8.352;2024-03-22T10:36:55;17.45;;;8.32;;
28760;SDS011;15917;50.014;8.352;2024-03-22T10:39:22;18.02;;;8.95;;
28760;SDS011;15917;50.014;8.352;2024-03-22T10:41:48;16.38;;;8.60;;
28760;SDS011;15917;50.014;8.352;2024-03-22T10:44:17;18.20;;;9.25;;
28760;SDS011;15917;50.014;8.352;2024-03-22T10:46:46;16.35;;;8.60;;
28760;SDS011;15917;50.014;8.352;2024-03-22T10:49:17;20.45;;;9.10;;
28760;SDS011;15917;50.014;8.352;2024-03-22T10:51:46;21.08;;;8.52;;
28760;SDS011;15917;50.014;8.352;2024-03-22T10:57:05;16.40;;;7.72;;
28760;SDS011;15917;50.014;8.352;2024-03-22T10:59:36;16.13;;;8.25;;
28760;SDS011;15917;50.014;8.352;2024-03-22T11:02:03;13.57;;;7.35;;
28760;SDS011;15917;50.014;8.352;2024-03-22T11:04:30;21.50;;;7.77;;
28760;SDS011;15917;50.014;8.352;2024-03-22T11:06:58;15.95;;;8.02;;
28760;SDS011;15917;50.014;8.352;2024-03-22T11:09:25;17.75;;;8.30;;
28760;SDS011;15917;50.014;8.352;2024-03-22T11:11:51;16.63;;;6.07;;
28760;SDS011;15917;50.014;8.352;2024-03-22T11:14:18;18.73;;;6.35;;
28760;SDS011;15917;50.014;8.352;2024-03-22T11:16:45;18.52;;;7.28;;
28760;SDS011;15917;50.014;8.352;2024-03-22T11:19:14;14.32;;;6.78;;
28760;SDS011;15917;50.014;8.352;2024-03-22T11:21:39;16.75;;;6.65;;
28760;SDS011;15917;50.014;8.352;2024-03-22T11:24:05;17.48;;;6.53;;
28760;SDS011;15917;50.014;8.352;2024-03-22T11:26:31;12.05;;;6.50;;
28760;SDS011;15917;50.014;8.352;2024-03-22T11:28:58;12.35;;;6.38;;
28760;SDS011;15917;50.014;8.352;2024-03-22T11:31:24;12.43;;;7.50;;
28760;SDS011;15917;50.014;8.352;2024-03-22T11:33:52;17.33;;;6.38;;
28760;SDS011;15917;50.014;8.352;2024-03-22T11:36:18;15.07;;;7.30;;
28760;SDS011;15917;50.014;8.352;2024-03-22T11:38:44;18.75;;;7.70;;
28760;SDS011;15917;50.014;8.352;2024-03-22T11:41:10;14.98;;;6.82;;
28760;SDS011;15917;50.014;8.352;2024-03-22T11:43:37;13.50;;;7.07;;
28760;SDS011;15917;50.014;8.352;2024-03-22T11:46:03;18.83;;;7.47;;
28760;SDS011;15917;50.014;8.352;2024-03-22T11:48:29;12.30;;;6.90;;
28760;SDS011;15917;50.014;8.352;2024-03-22T11:50:55;15.25;;;7.90;;
28760;SDS011;15917;50.014;8.352;2024-03-22T11:53:21;15.13;;;7.20;;
28760;SDS011;15917;50.014;8.352;2024-03-22T11:55:49;16.13;;;7.53;;
28760;SDS011;15917;50.014;8.352;2024-03-22T11:58:14;18.17;;;8.25;;
28760;SDS011;15917;50.014;8.352;2024-03-22T12:00:43;12.40;;;7.88;;
28760;SDS011;15917;50.014;8.352;2024-03-22T12:03:09;17.65;;;7.68;;
28760;SDS011;15917;50.014;8.352;2024-03-22T12:05:36;15.18;;;8.32;;
28760;SDS011;15917;50.014;8.352;2024-03-22T12:08:02;17.90;;;7.45;;
28760;SDS011;15917;50.014;8.352;2024-03-22T12:10:27;13.98;;;7.47;;
28760;SDS011;15917;50.014;8.352;2024-03-22T12:12:53;15.32;;;8.07;;
28760;SDS011;15917;50.014;8.352;2024-03-22T12:15:19;13.27;;;7.60;;
28760;SDS011;15917;50.014;8.352;2024-03-22T12:17:45;18.50;;;7.60;;
28760;SDS011;15917;50.014;8.352;2024-03-22T12:20:10;19.08;;;8.05;;
28760;SDS011;15917;50.014;8.352;2024-03-22T12:22:36;13.65;;;7.70;;
28760;SDS011;15917;50.014;8.352;2024-03-22T12:25:01;12.02;;;7.60;;
28760;SDS011;15917;50.014;8.352;2024-03-22T12:29:54;12.77;;;7.78;;
28760;SDS011;15917;50.014;8.352;2024-03-22T12:32:20;16.58;;;8.30;;
28760;SDS011;15917;50.014;8.352;2024-03-22T12:34:46;16.35;;;8.57;;
28760;SDS011;15917;50.014;8.352;2024-03-22T12:37:11;16.80;;;8.55;;
28760;SDS011;15917;50.014;8.352;2024-03-22T12:39:38;18.33;;;9.15;;
28760;SDS011;15917;50.014;8.352;2024-03-22T12:42:04;14.27;;;7.38;;
28760;SDS011;15917;50.014;8.352;2024-03-22T12:44:31;14.68;;;7.30;;
28760;SDS011;15917;50.014;8.352;2024-03-22T12:46:56;15.43;;;7.78;;
28760;SDS011;15917;50.014;8.352;2024-03-22T12:49:22;18.13;;;8.15;;
28760;SDS011;15917;50.014;8.352;2024-03-22T12:51:47;15.52;;;8.18;;
28760;SDS011;15917;50.014;8.352;2024-03-22T12:54:13;17.48;;;8.55;;
28760;SDS011;15917;50.014;8.352;2024-03-22T12:56:39;13.88;;;7.45;;
28760;SDS011;15917;50.014;8.352;2024-03-22T12:59:05;17.83;;;7.45;;
28760;SDS011;15917;50.014;8.352;2024-03-22T13:01:32;13.70;;;7.83;;
28760;SDS011;15917;50.014;8.352;2024-03-22T13:03:58;15.48;;;7.00;;
28760;SDS011;15917;50.014;8.352;2024-03-22T13:06:23;21.38;;;9.02;;
28760;SDS011;15917;50.014;8.352;2024-03-22T13:08:49;17.27;;;9.23;;
28760;SDS011;15917;50.014;8.352;2024-03-22T13:11:15;15.98;;;8.93;;
28760;SDS011;15917;50.014;8.352;2024-03-22T13:13:42;16.63;;;9.00;;
28760;SDS011;15917;50.014;8.352;2024-03-22T13:16:08;16.90;;;8.05;;
28760;SDS011;15917;50.014;8.352;2024-03-22T13:21:02;16.98;;;7.95;;
28760;SDS011;15917;50.014;8.352;2024-03-22T13:25:55;21.88;;;9.38;;
28760;SDS011;15917;50.014;8.352;2024-03-22T13:30:49;17.65;;;9.05;;
28760;SDS011;15917;50.014;8.352;2024-03-22T13:33:24;15.43;;;7.78;;
28760;SDS011;15917;50.014;8.352;2024-03-22T13:35:49;17.92;;;8.40;;
28760;SDS011;15917;50.014;8.352;2024-03-22T13:38:15;21.77;;;8.45;;
28760;SDS011;15917;50.014;8.352;2024-03-22T13:40:41;16.17;;;8.43;;
28760;SDS011;15917;50.014;8.352;2024-03-22T13:43:09;15.75;;;8.48;;
28760;SDS011;15917;50.014;8.352;2024-03-22T13:45:41;20.48;;;9.27;;
28760;SDS011;15917;50.014;8.352;2024-03-22T13:48:10;19.75;;;10.05;;
28760;SDS011;15917;50.014;8.352;2024-03-22T13:50:36;23.45;;;9.60;;
28760;SDS011;15917;50.014;8.352;2024-03-22T13:53:02;19.65;;;10.07;;
28760;SDS011;15917;50.014;8.352;2024-03-22T13:55:27;24.35;;;10.65;;
28760;SDS011;15917;50.014;8.352;2024-03-22T13:57:53;27.05;;;11.35;;
28760;SDS011;15917;50.014;8.352;2024-03-22T14:00:18;20.10;;;10.55;;
28760;SDS011;15917;50.014;8.352;2024-03-22T14:02:44;24.10;;;11.13;;
28760;SDS011;15917;50.014;8.352;2024-03-22T14:05:10;22.77;;;11.93;;
28760;SDS011;15917;50.014;8.352;2024-03-22T14:07:36;22.45;;;11.20;;
28760;SDS011;15917;50.014;8.352;2024-03-22T14:10:05;21.08;;;10.88;;
28760;SDS011;15917;50.014;8.352;2024-03-22T14:12:31;24.23;;;10.65;;
28760;SDS011;15917;50.014;8.352;2024-03-22T14:14:57;27.73;;;12.02;;
28760;SDS011;15917;50.014;8.352;2024-03-22T14:17:23;28.05;;;11.07;;
28760;SDS011;15917;50.014;8.352;2024-03-22T14:19:49;23.60;;;11.98;;
28760;SDS011;15917;50.014;8.352;2024-03-22T14:22:14;22.75;;;11.40;;
28760;SDS011;15917;50.014;8.352;2024-03-22T14:24:40;25.50;;;11.35;;
28760;SDS011;15917;50.014;8.352;2024-03-22T14:27:09;23.40;;;12.95;;
28760;SDS011;15917;50.014;8.352;2024-03-22T14:29:34;23.95;;;12.95;;
28760;SDS011;15917;50.014;8.352;2024-03-22T14:32:00;28.95;;;13.15;;